Time;durP1;ratioP1;P1;durP2;ratioP2;P2;SDS_P1;SDS_P2;PMS_P1;PMS_P2;Temp;Humidity;BMP_temperature;BMP_pressure;BME280_temperature;BME280_humidity;BME280_pressure;Samples;Min_cycle;Max_cycle;Signal;HPM_P1;HPM_P2
2022/10/23 00:01:29;;;;;;;1999.90;999.90;;;11.30;99.90;;;;;;5069365;28;20911;-71
2022/10/23 00:03:58;;;;;;;1999.90;999.90;;;11.20;99.90;;;;;;5067445;28;20488;-71
2022/10/23 00:06:26;;;;;;;1999.90;999.90;;;11.40;99.90;;;;;;5063681;28;20515;-70
2022/10/23 00:08:53;;;;;;;1999.90;999.90;;;11.40;99.90;;;;;;5065674;28;20862;-70
2022/10/23 00:11:22;;;;;;;1999.90;999.90;;;11.50;99.90;;;;;;5072787;22;20518;-68
2022/10/23 00:13:49;;;;;;;1999.90;999.90;;;11.60;99.90;;;;;;5024704;28;20467;-68
2022/10/23 00:16:17;;;;;;;1999.90;999.90;;;11.60;99.90;;;;;;5029366;28;20462;-68
2022/10/23 00:18:44;;;;;;;1999.90;999.90;;;11.60;99.90;;;;;;5028014;28;20851;-68
2022/10/23 00:21:12;;;;;;;1999.90;999.90;;;11.70;99.90;;;;;;5024931;28;20534;-68
2022/10/23 00:23:40;;;;;;;1999.90;999.90;;;11.70;99.90;;;;;;5018906;28;20952;-68
2022/10/23 00:26:09;;;;;;;1999.90;999.90;;;11.70;99.90;;;;;;5023469;28;20480;-68
2022/10/23 00:28:37;;;;;;;1999.90;999.90;;;11.70;99.90;;;;;;5032329;28;20463;-68
2022/10/23 00:31:05;;;;;;;1999.90;999.90;;;11.60;99.90;;;;;;5023632;28;20484;-68
2022/10/23 00:33:33;;;;;;;1999.90;999.90;;;11.70;99.90;;;;;;5020879;28;20463;-68
2022/10/23 00:36:00;;;;;;;1999.90;999.90;;;11.70;99.90;;;;;;5030985;28;20975;-68
2022/10/23 00:38:27;;;;;;;1999.90;999.90;;;11.80;99.90;;;;;;5029003;28;20462;-69
2022/10/23 00:40:53;;;;;;;1999.90;999.90;;;11.70;99.90;;;;;;5014678;28;20487;-68
2022/10/23 00:43:22;;;;;;;1999.90;999.90;;;11.70;99.90;;;;;;5025179;28;20467;-68
2022/10/23 00:45:49;;;;;;;1999.90;999.90;;;11.80;99.90;;;;;;5028353;28;21023;-68
2022/10/23 00:48:16;;;;;;;1999.90;999.90;;;11.80;99.90;;;;;;5032929;28;20467;-68
2022/10/23 00:50:46;;;;;;;1999.90;999.90;;;11.90;99.90;;;;;;5029665;28;20867;-68
2022/10/23 00:53:13;;;;;;;1999.90;999.90;;;11.90;99.90;;;;;;5027628;28;20463;-68
2022/10/23 00:55:44;;;;;;;1999.90;999.90;;;12.00;99.90;;;;;;5019494;28;20460;-68
2022/10/23 00:58:11;;;;;;;1999.90;999.90;;;11.90;99.90;;;;;;5027749;28;20455;-68
2022/10/23 01:00:44;;;;;;;1999.90;999.90;;;11.90;99.90;;;;;;5031682;28;21051;-68
2022/10/23 01:03:11;;;;;;;1999.90;999.90;;;11.90;99.90;;;;;;5034050;28;20463;-68
2022/10/23 01:05:45;;;;;;;1999.90;999.90;;;11.90;99.90;;;;;;5031467;28;21018;-68
2022/10/23 01:08:21;;;;;;;1999.90;999.90;;;12.00;99.90;;;;;;5025591;28;20459;-68
2022/10/23 01:10:55;;;;;;;1999.90;999.90;;;12.00;99.90;;;;;;5026422;28;20490;-68
2022/10/23 01:13:33;;;;;;;1999.90;999.90;;;12.00;99.90;;;;;;5027606;28;20468;-68
2022/10/23 01:16:07;;;;;;;1999.90;999.90;;;11.90;99.90;;;;;;5028021;28;20954;-68
2022/10/23 01:18:41;;;;;;;1999.90;999.90;;;11.80;99.90;;;;;;5029156;28;20473;-68
2022/10/23 01:21:12;;;;;;;1999.90;999.90;;;11.80;99.90;;;;;;5029966;28;20487;-68
2022/10/23 01:23:57;;;;;;;1999.90;999.90;;;11.70;99.90;;;;;;5019873;28;20923;-68
2022/10/23 01:26:34;;;;;;;1999.90;999.90;;;11.70;99.90;;;;;;5018828;28;20982;-68
2022/10/23 01:29:08;;;;;;;1999.90;999.90;;;11.70;99.90;;;;;;5025293;28;20463;-68
2022/10/23 01:31:39;;;;;;;1999.90;999.90;;;11.70;99.90;;;;;;5031676;28;20482;-68
2022/10/23 01:34:09;;;;;;;1999.90;999.90;;;11.60;99.90;;;;;;5031460;28;20475;-68
2022/10/23 01:36:40;;;;;;;1999.90;999.90;;;11.60;99.90;;;;;;5027749;28;20838;-68
2022/10/23 01:39:10;;;;;;;1999.90;999.90;;;11.50;99.90;;;;;;5024910;28;20482;-68
2022/10/23 01:41:44;;;;;;;1999.90;999.90;;;11.60;99.90;;;;;;5028143;28;20475;-68
2022/10/23 01:44:17;;;;;;;1999.90;999.90;;;11.60;99.90;;;;;;5028878;28;20470;-68
2022/10/23 01:46:46;;;;;;;1999.90;999.90;;;11.60;99.90;;;;;;5024570;28;20486;-68
2022/10/23 01:49:14;;;;;;;1999.90;999.90;;;11.50;99.90;;;;;;5028716;28;20468;-68
2022/10/23 01:51:49;;;;;;;1999.90;999.90;;;11.50;99.90;;;;;;5026662;28;20490;-68
2022/10/23 01:54:19;;;;;;;1999.90;999.90;;;11.40;99.90;;;;;;5023037;28;20471;-68
2022/10/23 01:56:48;;;;;;;1999.90;999.90;;;11.40;99.90;;;;;;5021708;28;20467;-68
2022/10/23 01:59:19;;;;;;;1999.90;999.90;;;11.30;99.90;;;;;;5028373;28;20463;-68
2022/10/23 02:01:49;;;;;;;1999.90;999.90;;;11.40;99.90;;;;;;5030010;28;20490;-68
2022/10/23 02:04:22;;;;;;;1999.90;999.90;;;11.30;99.90;;;;;;5025879;28;20463;-68
2022/10/23 02:06:49;;;;;;;1999.90;999.90;;;11.30;99.90;;;;;;5025325;28;21161;-68
2022/10/23 02:09:15;;;;;;;1999.90;999.90;;;11.30;99.90;;;;;;5029180;28;20463;-68
2022/10/23 02:11:51;;;;;;;1999.90;999.90;;;11.20;99.90;;;;;;5028649;28;21010;-67
2022/10/23 02:14:23;;;;;;;1999.90;999.90;;;11.20;99.90;;;;;;5029349;28;20462;-68
2022/10/23 02:16:52;;;;;;;1999.90;999.90;;;11.10;99.90;;;;;;5029808;28;20455;-68
2022/10/23 02:19:25;;;;;;;1999.90;999.90;;;11.10;99.90;;;;;;5026210;28;20463;-68
2022/10/23 02:21:56;;;;;;;1999.90;999.90;;;11.10;99.90;;;;;;5027291;28;20479;-68
2022/10/23 02:24:30;;;;;;;1999.90;999.90;;;10.60;99.90;;;;;;5028335;28;20454;-68
2022/10/23 02:27:01;;;;;;;1999.90;999.90;;;11.00;99.90;;;;;;5028457;28;20868;-67
2022/10/23 02:29:33;;;;;;;1999.90;999.90;;;10.90;99.90;;;;;;5027456;28;20455;-70
2022/10/23 02:32:00;;;;;;;1999.90;999.90;;;10.80;99.90;;;;;;5025421;28;21217;-70
2022/10/23 02:34:27;;;;;;;1999.90;999.90;;;10.70;99.90;;;;;;5024780;28;20471;-70
2022/10/23 02:36:54;;;;;;;1999.90;999.90;;;10.70;99.90;;;;;;5027195;28;20459;-70
2022/10/23 02:39:22;;;;;;;1999.90;999.90;;;10.60;99.90;;;;;;5027153;28;20455;-70
2022/10/23 02:41:56;;;;;;;1999.90;999.90;;;10.60;99.90;;;;;;5027502;28;20482;-69
2022/10/23 02:44:33;;;;;;;1999.90;999.90;;;10.60;99.90;;;;;;5026146;28;20463;-68
2022/10/23 02:47:10;;;;;;;1999.90;999.90;;;10.70;99.90;;;;;;5024988;28;20536;-68
2022/10/23 02:49:44;;;;;;;1999.90;999.90;;;10.80;99.90;;;;;;5027604;28;20469;-68
2022/10/23 02:52:16;;;;;;;1999.90;999.90;;;10.80;99.90;;;;;;5026858;28;20512;-68
2022/10/23 02:54:54;;;;;;;1999.90;999.90;;;10.80;99.90;;;;;;5026819;28;20967;-68
2022/10/23 02:57:28;;;;;;;1999.90;999.90;;;10.80;99.90;;;;;;5027172;28;20458;-69
2022/10/23 03:00:02;;;;;;;1999.90;999.90;;;10.90;99.90;;;;;;5027541;28;20468;-71
2022/10/23 03:02:36;;;;;;;1999.90;999.90;;;10.80;99.90;;;;;;5025421;28;20483;-70
2022/10/23 03:05:04;;;;;;;1999.90;999.90;;;10.70;99.90;;;;;;5025032;28;20467;-70
2022/10/23 03:07:31;;;;;;;1999.90;999.90;;;10.70;99.90;;;;;;5027423;28;20491;-70
2022/10/23 03:09:57;;;;;;;1999.90;999.90;;;10.60;99.90;;;;;;5027236;28;20475;-70
2022/10/23 03:12:24;;;;;;;1999.90;999.90;;;10.50;99.90;;;;;;5027373;28;20483;-70
2022/10/23 03:14:51;;;;;;;1999.90;999.90;;;10.30;99.90;;;;;;5025591;28;21034;-70
2022/10/23 03:17:19;;;;;;;1999.90;999.90;;;10.40;99.90;;;;;;5024276;28;20451;-70
2022/10/23 03:19:46;;;;;;;1999.90;999.90;;;10.40;99.90;;;;;;5023303;28;20874;-70
2022/10/23 03:22:13;;;;;;;1999.90;999.90;;;10.30;99.90;;;;;;5027188;28;21116;-70
2022/10/23 03:24:39;;;;;;;1999.90;999.90;;;10.30;99.90;;;;;;5027978;28;20463;-70
2022/10/23 03:27:06;;;;;;;1999.90;999.90;;;10.30;99.90;;;;;;5028555;28;20479;-71
2022/10/23 03:29:33;;;;;;;1999.90;999.90;;;10.20;99.90;;;;;;5024032;28;20463;-71
2022/10/23 03:32:00;;;;;;;1999.90;999.90;;;10.30;99.90;;;;;;5024608;28;20483;-70
2022/10/23 03:34:28;;;;;;;1999.90;999.90;;;10.20;99.90;;;;;;5027394;28;20499;-70
2022/10/23 03:36:55;;;;;;;1999.90;999.90;;;10.30;99.90;;;;;;5026412;28;20475;-71
2022/10/23 03:39:21;;;;;;;1999.90;999.90;;;10.20;99.90;;;;;;5025873;28;20830;-71
2022/10/23 03:41:48;;;;;;;1999.90;999.90;;;10.10;99.90;;;;;;5031028;28;20486;-70
2022/10/23 03:44:15;;;;;;;1999.90;999.90;;;10.10;99.90;;;;;;5026231;28;20458;-70
2022/10/23 03:46:42;;;;;;;1999.90;999.90;;;10.10;99.90;;;;;;5028415;28;20491;-70
2022/10/23 03:49:09;;;;;;;1999.90;999.90;;;10.10;99.90;;;;;;5031095;28;20479;-70
2022/10/23 03:51:40;;;;;;;1999.90;999.90;;;10.10;99.90;;;;;;5029914;28;20486;-70
2022/10/23 03:54:07;;;;;;;1999.90;999.90;;;10.00;99.90;;;;;;5030354;28;20855;-70
2022/10/23 03:56:34;;;;;;;1999.90;999.90;;;10.00;99.90;;;;;;5028677;28;20462;-70
2022/10/23 03:59:01;;;;;;;1999.90;999.90;;;9.90;99.90;;;;;;5027809;28;20475;-70
2022/10/23 04:01:27;;;;;;;1999.90;999.90;;;9.90;99.90;;;;;;5029794;28;20482;-71
2022/10/23 04:03:54;;;;;;;1999.90;999.90;;;9.80;99.90;;;;;;5031917;28;20463;-71
2022/10/23 04:06:21;;;;;;;1999.90;999.90;;;9.80;99.90;;;;;;5029507;28;20459;-70
2022/10/23 04:08:49;;;;;;;1999.90;999.90;;;9.90;99.90;;;;;;5030414;28;20475;-71
2022/10/23 04:11:16;;;;;;;1999.90;999.90;;;9.70;99.90;;;;;;5029248;28;20502;-71
2022/10/23 04:13:42;;;;;;;1999.90;999.90;;;9.50;99.90;;;;;;5029002;28;20494;-71
2022/10/23 04:16:09;;;;;;;1999.90;999.90;;;9.50;99.90;;;;;;5029332;28;20478;-70
2022/10/23 04:18:36;;;;;;;1999.90;999.90;;;9.50;99.90;;;;;;5029929;28;20462;-70
2022/10/23 04:21:02;;;;;;;1999.90;999.90;;;9.50;99.90;;;;;;5029497;28;20493;-71
2022/10/23 04:23:29;;;;;;;1999.90;999.90;;;9.60;99.90;;;;;;5028290;28;20468;-70
2022/10/23 04:25:58;;;;;;;1999.90;999.90;;;9.60;99.90;;;;;;5029592;28;20970;-70
2022/10/23 04:28:25;;;;;;;1999.90;999.90;;;9.50;99.90;;;;;;5026042;28;20495;-71
2022/10/23 04:30:52;;;;;;;1999.90;999.90;;;9.50;99.90;;;;;;5028063;28;20498;-70
2022/10/23 04:33:19;;;;;;;1999.90;999.90;;;9.50;99.90;;;;;;5029631;28;20847;-70
2022/10/23 04:35:45;;;;;;;1999.90;999.90;;;9.60;99.90;;;;;;5029343;28;20474;-70
2022/10/23 04:38:12;;;;;;;1999.90;999.90;;;9.60;99.90;;;;;;5029021;28;20846;-70
2022/10/23 04:40:39;;;;;;;1999.90;999.90;;;9.50;99.90;;;;;;5027367;28;20479;-70
2022/10/23 04:43:07;;;;;;;1999.90;999.90;;;9.50;99.90;;;;;;5029741;28;20841;-70
2022/10/23 04:45:34;;;;;;;1999.90;999.90;;;9.60;99.90;;;;;;5030362;28;20463;-70
2022/10/23 04:48:00;;;;;;;1999.90;999.90;;;9.70;99.90;;;;;;5031395;28;21025;-70
2022/10/23 04:50:27;;;;;;;1999.90;999.90;;;9.80;99.90;;;;;;5031030;28;20459;-70
2022/10/23 04:52:54;;;;;;;1999.90;999.90;;;10.00;99.90;;;;;;5031658;28;20474;-70
2022/10/23 04:55:22;;;;;;;1999.90;999.90;;;9.70;99.90;;;;;;5029813;28;20990;-70
2022/10/23 04:57:48;;;;;;;1999.90;999.90;;;9.80;99.90;;;;;;5030340;28;20475;-70
2022/10/23 05:00:17;;;;;;;1999.90;999.90;;;9.70;99.90;;;;;;5029685;28;20973;-70
2022/10/23 05:02:44;;;;;;;1999.90;999.90;;;9.70;99.90;;;;;;5029764;28;20951;-70
2022/10/23 05:05:11;;;;;;;1999.90;999.90;;;9.70;99.90;;;;;;5029650;28;20470;-70
2022/10/23 05:07:39;;;;;;;1999.90;999.90;;;9.70;99.90;;;;;;5028714;28;20479;-71
2022/10/23 05:10:07;;;;;;;1999.90;999.90;;;9.70;99.90;;;;;;5031249;28;20474;-70
2022/10/23 05:12:34;;;;;;;1999.90;999.90;;;9.70;99.90;;;;;;5028922;28;20487;-70
2022/10/23 05:15:00;;;;;;;1999.90;999.90;;;9.60;99.90;;;;;;5029455;28;20463;-71
2022/10/23 05:17:34;;;;;;;1999.90;999.90;;;9.60;99.90;;;;;;5030582;28;20494;-70
2022/10/23 05:20:05;;;;;;;1999.90;999.90;;;9.60;99.90;;;;;;5030203;28;20473;-70
2022/10/23 05:22:36;;;;;;;1999.90;999.90;;;9.70;99.90;;;;;;5030196;28;20526;-70
2022/10/23 05:25:06;;;;;;;1999.90;999.90;;;9.80;99.90;;;;;;5026763;28;20471;-70
2022/10/23 05:27:33;;;;;;;1999.90;999.90;;;9.80;99.90;;;;;;5028602;28;20483;-70
2022/10/23 05:30:01;;;;;;;1999.90;999.90;;;9.70;99.90;;;;;;5030549;28;20469;-71
2022/10/23 05:32:32;;;;;;;1999.90;999.90;;;9.70;99.90;;;;;;5028920;28;20496;-70
2022/10/23 05:35:01;;;;;;;1999.90;999.90;;;9.90;99.90;;;;;;5031215;28;20504;-70
2022/10/23 05:37:28;;;;;;;1999.90;999.90;;;9.80;99.90;;;;;;5030135;28;20472;-70
2022/10/23 05:39:54;;;;;;;1999.90;999.90;;;9.70;99.90;;;;;;5029301;28;20467;-70
2022/10/23 05:42:21;;;;;;;1999.90;999.90;;;9.70;99.90;;;;;;5029082;28;21009;-71
2022/10/23 05:44:48;;;;;;;1999.90;999.90;;;9.70;99.90;;;;;;5029061;28;20473;-71
2022/10/23 05:47:15;;;;;;;1999.90;999.90;;;9.60;99.90;;;;;;5028350;28;20518;-70
2022/10/23 05:49:43;;;;;;;1999.90;999.90;;;9.50;99.90;;;;;;5031394;28;20475;-70
2022/10/23 05:52:11;;;;;;;1999.90;999.90;;;9.40;99.90;;;;;;5031199;28;20491;-70
2022/10/23 05:54:37;;;;;;;1999.90;999.90;;;9.50;99.90;;;;;;5030272;28;20468;-70
2022/10/23 05:57:04;;;;;;;1999.90;999.90;;;9.50;99.90;;;;;;5028638;28;20459;-70
2022/10/23 05:59:31;;;;;;;1999.90;999.90;;;9.50;99.90;;;;;;5030017;28;20470;-70
2022/10/23 06:01:58;;;;;;;1999.90;999.90;;;9.50;99.90;;;;;;5031501;28;20490;-71
2022/10/23 06:04:25;;;;;;;1999.90;999.90;;;9.50;99.90;;;;;;5031273;28;20463;-70
2022/10/23 06:06:53;;;;;;;1999.90;999.90;;;9.60;99.90;;;;;;5030404;28;20467;-70
2022/10/23 06:09:20;;;;;;;1999.90;999.90;;;9.60;99.90;;;;;;5030048;28;20477;-70
2022/10/23 06:11:47;;;;;;;1999.90;999.90;;;9.60;99.90;;;;;;5027684;28;20494;-70
2022/10/23 06:14:13;;;;;;;1999.90;999.90;;;9.40;99.90;;;;;;5028487;28;20474;-70
2022/10/23 06:16:40;;;;;;;1999.90;999.90;;;9.50;99.90;;;;;;5030648;28;20471;-70
2022/10/23 06:19:10;;;;;;;1999.90;999.90;;;9.30;99.90;;;;;;5032449;28;21020;-70
2022/10/23 06:21:37;;;;;;;1999.90;999.90;;;9.40;99.90;;;;;;5029968;28;20861;-71
2022/10/23 06:24:06;;;;;;;1999.90;999.90;;;9.50;99.90;;;;;;5028845;28;20460;-70
2022/10/23 06:26:33;;;;;;;1999.90;999.90;;;9.50;99.90;;;;;;5024441;28;20952;-70
2022/10/23 06:29:00;;;;;;;1999.90;999.90;;;9.60;99.90;;;;;;5025505;28;20482;-70
2022/10/23 06:31:27;;;;;;;1999.90;999.90;;;9.90;99.90;;;;;;5029526;28;20940;-71
2022/10/23 06:33:54;;;;;;;1999.90;999.90;;;9.50;99.90;;;;;;5031300;28;20491;-70
2022/10/23 06:36:21;;;;;;;1999.90;999.90;;;9.50;99.90;;;;;;5031365;28;20454;-70
2022/10/23 06:38:48;;;;;;;1999.90;999.90;;;9.60;99.90;;;;;;5029903;28;20481;-70
2022/10/23 06:41:20;;;;;;;1999.90;999.90;;;9.60;99.90;;;;;;5027235;28;20546;-70
2022/10/23 06:43:48;;;;;;;1999.90;999.90;;;9.80;99.90;;;;;;5026507;28;20447;-70
2022/10/23 06:46:15;;;;;;;1999.90;999.90;;;9.80;99.90;;;;;;5031818;28;20459;-70
2022/10/23 06:48:42;;;;;;;1999.90;999.90;;;9.90;99.90;;;;;;5034685;28;20486;-70
2022/10/23 06:51:11;;;;;;;1999.90;999.90;;;9.90;99.90;;;;;;5023666;28;20495;-70
2022/10/23 06:53:38;;;;;;;1999.90;999.90;;;9.90;99.90;;;;;;5029613;28;20447;-70
2022/10/23 06:56:06;;;;;;;1999.90;999.90;;;9.80;99.90;;;;;;5027135;28;20466;-72
2022/10/23 06:58:36;;;;;;;1999.90;999.90;;;10.00;99.90;;;;;;5029236;28;20478;-70
2022/10/23 07:01:04;;;;;;;1999.90;999.90;;;10.10;99.90;;;;;;5028790;28;20487;-72
2022/10/23 07:03:33;;;;;;;1999.90;999.90;;;10.10;99.90;;;;;;5027358;28;20975;-70
2022/10/23 07:06:00;;;;;;;1999.90;999.90;;;10.30;99.90;;;;;;5028902;28;20495;-70
2022/10/23 07:08:27;;;;;;;1999.90;999.90;;;10.40;99.90;;;;;;5027551;28;20510;-70
2022/10/23 07:10:54;;;;;;;1999.90;999.90;;;10.50;99.90;;;;;;5033225;28;20487;-71
2022/10/23 07:13:21;;;;;;;1999.90;999.90;;;10.50;99.90;;;;;;5043300;28;21140;-71
2022/10/23 07:15:49;;;;;;;1999.90;999.90;;;10.70;99.90;;;;;;5026302;28;20464;-69
2022/10/23 07:18:16;;;;;;;1999.90;999.90;;;10.80;99.90;;;;;;5034170;28;20483;-69
2022/10/23 07:20:43;;;;;;;1999.90;999.90;;;11.00;99.90;;;;;;5033861;28;20991;-69
2022/10/23 07:23:11;;;;;;;1999.90;999.90;;;11.20;99.90;;;;;;5031698;28;20474;-69
2022/10/23 07:25:38;;;;;;;1999.90;999.90;;;11.40;99.90;;;;;;5029503;28;20470;-69
2022/10/23 07:28:05;;;;;;;1999.90;999.90;;;11.40;99.90;;;;;;5031483;28;21025;-69
2022/10/23 07:30:32;;;;;;;1999.90;999.90;;;11.60;99.90;;;;;;5030264;28;20463;-69
2022/10/23 07:33:00;;;;;;;1999.90;999.90;;;11.70;99.90;;;;;;5032331;28;20463;-69
2022/10/23 07:35:27;;;;;;;1999.90;999.90;;;11.70;99.90;;;;;;5032509;28;20848;-69
2022/10/23 07:37:53;;;;;;;1999.90;999.90;;;11.80;99.90;;;;;;5031398;28;20463;-69
2022/10/23 07:40:20;;;;;;;1999.90;999.90;;;11.80;99.90;;;;;;5033937;28;20469;-69
2022/10/23 07:42:47;;;;;;;1999.90;999.90;;;12.00;99.90;;;;;;5037628;28;20493;-69
2022/10/23 07:45:14;;;;;;;1999.90;999.90;;;12.10;99.90;;;;;;5032166;28;20463;-69
2022/10/23 07:47:40;;;;;;;1999.90;999.90;;;12.20;99.90;;;;;;5029042;28;20494;-69
2022/10/23 07:50:09;;;;;;;1999.90;999.90;;;12.50;99.90;;;;;;5030560;28;20850;-69
2022/10/23 07:52:36;;;;;;;1999.90;999.90;;;12.80;99.90;;;;;;5027801;28;21020;-69
2022/10/23 07:55:03;;;;;;;1999.90;999.90;;;12.90;99.90;;;;;;5029994;28;20468;-69
2022/10/23 07:57:30;;;;;;;1999.90;999.90;;;13.00;99.90;;;;;;5033460;28;20466;-69
2022/10/23 07:59:57;;;;;;;1999.90;999.90;;;13.10;99.90;;;;;;5032700;28;20982;-69
2022/10/23 08:02:24;;;;;;;1999.90;999.90;;;13.00;99.90;;;;;;5031171;28;20478;-69
2022/10/23 08:04:51;;;;;;;1999.90;999.90;;;13.10;99.90;;;;;;5030830;28;20467;-69
2022/10/23 08:07:19;;;;;;;1999.90;999.90;;;13.30;99.90;;;;;;5031875;28;20459;-69
2022/10/23 08:09:45;;;;;;;1999.90;999.90;;;13.50;99.90;;;;;;5025508;28;21018;-69
2022/10/23 08:12:12;;;;;;;1999.90;999.90;;;13.50;99.90;;;;;;5029793;28;20494;-69
2022/10/23 08:14:39;;;;;;;1999.90;999.90;;;13.70;99.90;;;;;;5032789;28;20971;-69
2022/10/23 08:17:08;;;;;;;1999.90;999.90;;;13.60;99.90;;;;;;5034975;28;20463;-70
2022/10/23 08:19:35;;;;;;;1999.90;999.90;;;13.80;99.90;;;;;;5029835;28;20486;-69
2022/10/23 08:22:02;;;;;;;1999.90;999.90;;;13.90;99.90;;;;;;5028647;28;20876;-69
2022/10/23 08:24:30;;;;;;;1999.90;999.90;;;13.90;99.90;;;;;;5026907;28;20547;-69
2022/10/23 08:26:58;;;;;;;1999.90;999.90;;;14.10;99.90;;;;;;5046246;28;20461;-70
2022/10/23 08:29:25;;;;;;;1999.90;999.90;;;14.30;99.90;;;;;;5052583;28;20478;-71
2022/10/23 08:31:54;;;;;;;1999.90;999.90;;;14.30;99.90;;;;;;5053473;28;20836;-70
2022/10/23 08:34:21;;;;;;;1999.90;999.90;;;14.50;99.90;;;;;;5053175;28;20457;-70
2022/10/23 08:36:48;;;;;;;1999.90;999.90;;;14.60;99.90;;;;;;5041891;28;20478;-70
2022/10/23 08:39:15;;;;;;;1999.90;999.90;;;14.60;99.90;;;;;;5033756;28;20955;-70
2022/10/23 08:41:47;;;;;;;1999.90;999.90;;;14.80;99.90;;;;;;5028367;28;20510;-70
2022/10/23 08:44:21;;;;;;;1999.90;999.90;;;14.80;99.90;;;;;;5031907;28;20451;-69
2022/10/23 08:46:53;;;;;;;1999.90;999.90;;;15.00;99.90;;;;;;5033460;28;20466;-69
2022/10/23 08:49:39;;;;;;;1999.90;999.90;;;14.90;99.90;;;;;;5035891;28;21848;-68
2022/10/23 08:52:16;;;;;;;1999.90;999.90;;;15.10;99.90;;;;;;5032833;28;20479;-69
2022/10/23 08:54:59;;;;;;;1999.90;999.90;;;15.30;99.90;;;;;;5029132;28;20470;-69
2022/10/23 08:57:34;;;;;;;1999.90;999.90;;;15.50;99.90;;;;;;5028255;28;20459;-69
2022/10/23 09:00:04;;;;;;;1999.90;999.90;;;15.70;99.90;;;;;;5034944;28;20457;-69
2022/10/23 09:02:37;;;;;;;1999.90;999.90;;;15.90;99.90;;;;;;5034272;28;20835;-69
2022/10/23 09:05:04;;;;;;;1999.90;999.90;;;16.10;99.90;;;;;;5032289;28;20459;-69
2022/10/23 09:07:39;;;;;;;1999.90;999.90;;;16.30;99.90;;;;;;5033775;28;20836;-69
2022/10/23 09:10:19;;;;;;;1999.90;999.90;;;16.50;99.90;;;;;;5027811;28;20471;-69
2022/10/23 09:12:47;;;;;;;1999.90;999.90;;;16.60;99.90;;;;;;5032632;28;20463;-69
2022/10/23 09:15:22;;;;;;;1999.90;999.90;;;17.00;99.90;;;;;;5035218;28;20463;-69
2022/10/23 09:17:55;;;;;;;1999.90;999.90;;;17.10;99.90;;;;;;5033211;28;20975;-69
2022/10/23 09:20:25;;;;;;;1999.90;999.90;;;17.30;99.90;;;;;;5032463;28;20459;-69
2022/10/23 09:22:57;;;;;;;1999.90;999.90;;;17.40;99.90;;;;;;5030685;28;20474;-69
2022/10/23 09:25:26;;;;;;;1999.90;999.90;;;17.50;99.90;;;;;;5027969;28;20482;-69
2022/10/23 09:27:56;;;;;;;1999.90;999.90;;;17.60;99.90;;;;;;5031386;28;20464;-69
2022/10/23 09:30:32;;;;;;;1999.90;999.90;;;17.80;99.90;;;;;;5035744;28;20469;-67
2022/10/23 09:32:59;;;;;;;1999.90;999.90;;;17.90;99.90;;;;;;5033484;28;20489;-67
2022/10/23 09:35:29;;;;;;;1999.90;999.90;;;18.20;99.90;;;;;;5033349;28;20944;-68
2022/10/23 09:37:57;;;;;;;1999.90;999.90;;;18.40;99.90;;;;;;5031271;28;20977;-66
2022/10/23 09:40:32;;;;;;;1999.90;999.90;;;18.20;99.90;;;;;;5028570;28;20462;-69
2022/10/23 09:43:02;;;;;;;1999.90;999.90;;;18.30;99.90;;;;;;5034004;28;20455;-69
2022/10/23 09:45:32;;;;;;;1999.90;999.90;;;18.30;99.90;;;;;;5032504;28;20443;-70
2022/10/23 09:48:10;;;;;;;1999.90;999.90;;;18.40;99.90;;;;;;5032333;28;20451;-66
2022/10/23 09:50:37;;;;;;;1999.90;999.90;;;18.60;99.90;;;;;;5032265;28;20478;-67
2022/10/23 09:53:04;;;;;;;1999.90;999.90;;;18.70;99.90;;;;;;5030791;28;20851;-66
2022/10/23 09:55:31;;;;;;;1999.90;999.90;;;18.90;99.90;;;;;;5031403;28;20472;-67
2022/10/23 09:57:58;;;;;;;1999.90;999.90;;;18.60;99.90;;;;;;5028813;28;20474;-68
2022/10/23 10:00:27;;;;;;;1999.90;999.90;;;18.60;99.90;;;;;;5039947;28;20935;-68
2022/10/23 10:02:59;;;;;;;1999.90;999.90;;;18.50;99.90;;;;;;5037749;28;20507;-67
2022/10/23 10:05:28;;;;;;;1999.90;999.90;;;18.40;99.90;;;;;;5026268;28;20463;-67
2022/10/23 10:08:03;;;;;;;1999.90;999.90;;;18.50;99.90;;;;;;5030233;28;20474;-67
2022/10/23 10:10:35;;;;;;;1999.90;999.90;;;18.50;99.90;;;;;;5031853;28;20434;-67
2022/10/23 10:13:08;;;;;;;1999.90;999.90;;;18.50;99.90;;;;;;5014486;28;20526;-67
2022/10/23 10:15:43;;;;;;;1999.90;999.90;;;18.60;99.90;;;;;;5031417;28;20864;-67
2022/10/23 10:18:18;;;;;;;1999.90;999.90;;;18.50;99.90;;;;;;5031791;28;20443;-67
2022/10/23 10:21:11;;;;;;;1999.90;999.90;;;18.40;99.90;;;;;;5031628;28;20466;-67
2022/10/23 10:23:45;;;;;;;1999.90;999.90;;;18.20;99.90;;;;;;5031202;28;20451;-67
2022/10/23 10:26:26;;;;;;;1999.90;999.90;;;18.30;99.90;;;;;;5031106;28;20439;-67
2022/10/23 10:29:02;;;;;;;1999.90;999.90;;;18.20;99.90;;;;;;5031646;28;20475;-67
2022/10/23 10:31:42;;;;;;;1999.90;999.90;;;18.20;99.90;;;;;;5030774;28;20488;-67
2022/10/23 10:34:14;;;;;;;1999.90;999.90;;;18.30;99.90;;;;;;5031484;28;20443;-67
2022/10/23 10:36:50;;;;;;;1999.90;999.90;;;18.30;99.90;;;;;;5031357;28;20447;-67
2022/10/23 10:39:30;;;;;;;1999.90;999.90;;;18.40;99.90;;;;;;5031764;28;20450;-67
2022/10/23 10:42:25;;;;;;;1999.90;999.90;;;18.30;99.90;;;;;;5031675;28;20541;-67
2022/10/23 10:45:14;;;;;;;1999.90;999.90;;;18.40;99.90;;;;;;5031145;28;20455;-67
2022/10/23 10:47:50;;;;;;;1999.90;999.90;;;18.60;99.90;;;;;;5025456;28;20943;-68
2022/10/23 10:50:23;;;;;;;1999.90;999.90;;;19.00;99.90;;;;;;5031249;28;21002;-67
2022/10/23 10:52:59;;;;;;;1999.90;999.90;;;19.10;99.90;;;;;;5032524;28;20435;-67
2022/10/23 10:55:32;;;;;;;1999.90;999.90;;;19.60;99.90;;;;;;5035336;28;20565;-67
2022/10/23 10:58:03;;;;;;;1999.90;999.90;;;19.40;99.90;;;;;;5035566;28;20912;-67
2022/10/23 11:00:33;;;;;;;1999.90;999.90;;;19.60;99.90;;;;;;5033852;28;20486;-67
2022/10/23 11:03:11;;;;;;;1999.90;999.90;;;19.60;99.90;;;;;;5035520;28;20443;-67
2022/10/23 11:05:42;;;;;;;1999.90;999.90;;;19.70;99.90;;;;;;5035323;28;20431;-70
2022/10/23 11:08:14;;;;;;;1999.90;999.90;;;19.80;99.90;;;;;;5035325;28;20427;-70
2022/10/23 11:10:45;;;;;;;1999.90;999.90;;;20.10;99.90;;;;;;5035019;28;20501;-70
2022/10/23 11:13:25;;;;;;;1999.90;999.90;;;20.20;99.90;;;;;;5036867;28;20455;-70
2022/10/23 11:15:55;;;;;;;1999.90;999.90;;;20.40;99.90;;;;;;5026023;28;20481;-70
2022/10/23 11:18:27;;;;;;;1999.90;999.90;;;20.40;99.90;;;;;;5040715;28;20473;-70
2022/10/23 11:21:11;;;;;;;1999.90;999.90;;;20.50;99.90;;;;;;5041446;28;20506;-70
2022/10/23 11:23:58;;;;;;;1999.90;999.90;;;20.20;99.90;;;;;;5032470;28;20465;-70
2022/10/23 11:26:38;;;;;;;1999.90;999.90;;;20.20;99.90;;;;;;5024440;28;20448;-70
2022/10/23 11:29:31;;;;;;;1999.90;999.90;;;20.20;99.90;;;;;;5030365;28;20505;-70
2022/10/23 11:32:14;;;;;;;1999.90;999.90;;;20.30;99.90;;;;;;5040985;28;20483;-70
2022/10/23 11:35:08;;;;;;;1999.90;999.90;;;20.10;99.90;;;;;;5025699;28;21275;-70
2022/10/23 11:37:34;;;;;;;1999.90;999.90;;;20.20;99.90;;;;;;5037712;28;20461;-69
2022/10/23 11:40:17;;;;;;;1999.90;999.90;;;20.50;99.90;;;;;;5035013;28;20464;-69
2022/10/23 11:42:48;;;;;;;1999.90;999.90;;;20.70;99.90;;;;;;5027348;28;20471;-70
2022/10/23 11:45:34;;;;;;;1999.90;999.90;;;20.60;99.90;;;;;;5038531;28;20459;-70
2022/10/23 11:48:02;;;;;;;1999.90;999.90;;;20.70;99.90;;;;;;5040328;28;20754;-70
2022/10/23 11:50:34;;;;;;;1999.90;999.90;;;21.10;99.90;;;;;;5045243;28;20489;-70
2022/10/23 11:53:09;;;;;;;1999.90;999.90;;;20.60;99.90;;;;;;5041468;28;20459;-70
2022/10/23 11:55:36;;;;;;;1999.90;999.90;;;20.50;99.90;;;;;;5030203;28;20461;-70
2022/10/23 11:58:18;;;;;;;1999.90;999.90;;;20.50;99.90;;;;;;5027868;28;20971;-70
2022/10/23 12:00:55;;;;;;;1999.90;999.90;;;20.50;99.90;;;;;;5034801;28;20493;-70
2022/10/23 12:03:28;;;;;;;1999.90;999.90;;;20.60;99.90;;;;;;5044330;28;20465;-70
2022/10/23 12:06:02;;;;;;;1999.90;999.90;;;20.60;99.90;;;;;;5034669;28;20458;-70
2022/10/23 12:08:31;;;;;;;1999.90;999.90;;;20.40;99.90;;;;;;5031488;28;20461;-70
2022/10/23 12:10:58;;;;;;;1999.90;999.90;;;20.30;99.90;;;;;;5030391;28;20479;-70
2022/10/23 12:13:44;;;;;;;1999.90;999.90;;;20.20;99.90;;;;;;5038588;28;20545;-69
2022/10/23 12:16:11;;;;;;;1999.90;999.90;;;20.00;99.90;;;;;;5052437;23;20541;-70